Rifle, CO

12:49 AM MST on November 29, 2014 (GMT -0700)
RAWS RIFLE CO US | Change Station
CLOSE
Current Station
Personal Weather Station
Location: Rifle, CO
Elevation: 6120 ft
Nearby Weather Stations
Active Advisory: Special Weather Statement

Elev 6120 ft 39.51 °N, 107.75 °W | Updated 58 minutes ago

Clear
Clear
33 °F
Feels Like 33 °F
N
3
Wind Variable Wind from WSW
Gusts 5.0 mph

Today
High -- | Low -- °F
--% Chance of Precip.
Yesterday
High -- | Low -- °F
Precip. -- in
7:10 AM 4:48 PM
Waxing Crescent, 49% visible
Pressure 29.99 in
Visibility 10.0 miles
Clouds Clear
Windchill 33 °F
Dew Point 21 °F
Humidity 62%
Rainfall 0.00 in
Snow Depth Not available.
UV 0 out of 12
Pollen .10 out of 12
Air Quality Not available.
Flu Activity Not available.
METAR KRIL 290653Z AUTO 00000KT 10SM CLR M03/M05 A2998 RMK AO2 SLP155 T10281050 401061044

More Conditions Fewer Conditions

Pressure 29.99 in
Visibility 10.0 miles
Clouds Clear
Windchill 33 °F
Dew Point 21 °F
Humidity 62%
Rainfall 0.00 in
Snow Depth Not available.
UV 0 out of 12
Pollen .10 out of 12
Air Quality Not available.
Flu Activity Not available.
METAR KRIL 290653Z AUTO 00000KT 10SM CLR M03/M05 A2998 RMK AO2 SLP155 T10281050 401061044

More Conditions Fewer Conditions

10-Day Weather Forecast

Almanac

Astronomy

Nov. 29, 2014 Rise Set
Actual Time
Civil Twilight
Nautical Twilight
Astronomical Twilight
Moon
Length of Visible Light
Length of Day
Tomorrow will be .
, % of the Moon is Illuminated

Today's Extremes

State Highs State Lows

Community

WunderPhotos

Upload Photos

1,774,432 photos uploaded!

WunderBlogs® & News

Nearby

Air Quality

  Air Quality AQ Index Pollutant
Not available.

Snow Depth

Station Depth Elevation

Earthquake Activity

City Distance Mag. Time & Date
Minimum magnitude displayed is 2.5.

Coastal Water Temperatures

Place Temperature

Nearby Weather Stations